Time;durP1;ratioP1;P1;durP2;ratioP2;P2;SDS_P1;SDS_P2;PMS_P1;PMS_P2;Temp;Humidity;BMP_temperature;BMP_pressure;BME280_temperature;BME280_humidity;BME280_pressure;Samples;Min_cycle;Max_cycle;Signal;HPM_P1;HPM_P2
2021/12/23 00:01:50;;;;;;;21.00;13.90;;;;;;;-2.20;100.00;101833.88;4724384;30;20691;-77
2021/12/23 00:04:19;;;;;;;21.10;14.25;;;;;;;-2.20;100.00;101831.28;4746293;30;20091;-77
2021/12/23 00:06:47;;;;;;;20.00;14.45;;;;;;;-2.20;100.00;101818.38;4715718;30;20189;-77
2021/12/23 00:09:16;;;;;;;20.88;13.60;;;;;;;-2.17;100.00;101823.78;4724893;30;20056;-78
2021/12/23 00:11:45;;;;;;;19.65;14.52;;;;;;;-2.17;100.00;101814.31;4729271;30;20044;-77
2021/12/23 00:14:14;;;;;;;19.88;13.85;;;;;;;-2.14;100.00;101805.88;4722117;30;20553;-77
2021/12/23 00:19:37;;;;;;;19.77;12.50;;;;;;;-2.12;100.00;101798.25;4706057;30;20380;-77
2021/12/23 00:24:52;;;;;;;20.40;13.50;;;;;;;-2.12;100.00;101800.84;4687605;30;20541;-77
2021/12/23 00:27:21;;;;;;;20.00;12.98;;;;;;;-2.11;100.00;101795.78;4706286;30;20064;-79
2021/12/23 00:29:52;;;;;;;20.90;14.13;;;;;;;-2.10;100.00;101794.97;4718521;30;20051;-77
2021/12/23 00:32:20;;;;;;;21.15;14.05;;;;;;;-2.09;100.00;101782.97;4704866;30;20067;-77
2021/12/23 00:34:49;;;;;;;21.20;14.15;;;;;;;-2.10;100.00;101782.06;4731299;30;20222;-77
2021/12/23 00:37:18;;;;;;;20.15;13.27;;;;;;;-2.09;100.00;101778.69;4690829;30;20102;-77
2021/12/23 00:39:46;;;;;;;21.60;14.05;;;;;;;-2.09;100.00;101758.03;4730618;30;20056;-77
2021/12/23 00:42:15;;;;;;;20.95;14.15;;;;;;;-2.06;100.00;101762.50;4713258;30;20052;-77
2021/12/23 00:44:47;;;;;;;19.70;13.57;;;;;;;-2.05;100.00;101751.41;4719052;30;20511;-77
2021/12/23 00:47:16;;;;;;;22.13;14.82;;;;;;;-2.07;100.00;101751.28;4695530;30;20052;-78
2021/12/23 00:49:44;;;;;;;18.65;13.07;;;;;;;-2.05;100.00;101751.41;4703222;30;20052;-77
2021/12/23 00:52:16;;;;;;;18.98;14.05;;;;;;;-2.05;100.00;101761.72;4721708;30;20071;-77
2021/12/23 00:54:48;;;;;;;18.55;13.40;;;;;;;-2.05;100.00;101757.44;4729682;30;20059;-77
2021/12/23 00:57:18;;;;;;;22.17;14.07;;;;;;;-2.03;100.00;101757.56;4729777;30;20050;-77
2021/12/23 00:59:46;;;;;;;21.33;14.55;;;;;;;-2.03;100.00;101752.41;4708008;30;20060;-77
2021/12/23 01:02:17;;;;;;;19.67;13.68;;;;;;;-2.01;100.00;101743.94;4685711;30;20048;-77
2021/12/23 01:04:45;;;;;;;19.23;13.50;;;;;;;-1.99;100.00;101747.53;4724516;30;20048;-76
2021/12/23 01:07:16;;;;;;;19.38;13.27;;;;;;;-1.98;100.00;101732.94;4727009;30;20071;-78
2021/12/23 01:09:45;;;;;;;;;;;;;;;-1.97;100.00;101729.56;4707033;30;20078;-77
2021/12/23 01:12:18;;;;;;;19.20;13.77;;;;;;;-1.96;100.00;101727.09;4741124;30;19932;-77
2021/12/23 01:14:59;;;;;;;20.83;13.07;;;;;;;-1.94;100.00;101721.16;4746829;30;20056;-77
2021/12/23 01:19:57;;;;;;;19.50;13.93;;;;;;;-1.91;100.00;101708.41;4729152;30;20083;-77
2021/12/23 01:22:26;;;;;;;20.92;13.30;;;;;;;-1.87;100.00;101718.16;4755311;30;20624;-77
2021/12/23 01:24:54;;;;;;;19.65;13.77;;;;;;;-1.86;100.00;101717.38;4751049;30;20063;-77
2021/12/23 01:27:23;;;;;;;19.13;13.63;;;;;;;-1.83;100.00;101722.75;4727783;30;20051;-78
2021/12/23 01:29:51;;;;;;;20.65;13.63;;;;;;;-1.82;100.00;101729.72;4732465;30;20047;-78
2021/12/23 01:32:21;;;;;;;19.20;12.93;;;;;;;-1.81;100.00;101742.72;4734862;30;20165;-77
2021/12/23 01:34:50;;;;;;;19.58;13.73;;;;;;;-1.81;100.00;101747.91;4712646;30;20060;-77
2021/12/23 01:37:18;;;;;;;20.08;14.02;;;;;;;-1.77;100.00;101743.84;4743242;30;20745;-77
2021/12/23 01:39:47;;;;;;;20.10;14.57;;;;;;;-1.77;100.00;101733.50;4738545;30;20411;-77
2021/12/23 01:42:16;;;;;;;20.27;14.82;;;;;;;-1.77;100.00;101738.66;4729569;30;20062;-78
2021/12/23 01:44:45;;;;;;;20.08;13.30;;;;;;;-1.75;100.00;101723.28;4737077;30;20406;-78
2021/12/23 01:47:13;;;;;;;18.15;13.95;;;;;;;-1.77;100.00;101695.63;4737703;30;20439;-78
2021/12/23 01:49:42;;;;;;;21.70;14.27;;;;;;;-1.76;100.00;101693.94;4722548;30;20046;-78
2021/12/23 01:52:11;;;;;;;20.17;14.27;;;;;;;-1.75;100.00;101685.41;4728191;30;20056;-78
2021/12/23 01:54:39;;;;;;;19.42;14.40;;;;;;;-1.74;100.00;101682.00;4734793;30;20048;-77
2021/12/23 01:57:08;;;;;;;19.45;13.63;;;;;;;-1.75;100.00;101667.31;4762800;30;20054;-77
2021/12/23 01:59:37;;;;;;;21.27;14.95;;;;;;;-1.77;100.00;101663.72;4747229;30;20080;-77
2021/12/23 02:02:05;;;;;;;20.67;13.85;;;;;;;-1.74;100.00;101660.44;4733093;30;20047;-78
2021/12/23 02:04:34;;;;;;;20.13;14.13;;;;;;;-1.75;100.00;101651.81;4724749;30;20324;-78
2021/12/23 02:07:03;;;;;;;26.42;14.32;;;;;;;-1.77;100.00;101636.19;4704458;30;20051;-79
2021/12/23 02:09:32;;;;;;;20.17;14.52;;;;;;;-1.75;100.00;101628.56;4732391;30;20288;-76
2021/12/23 02:12:00;;;;;;;20.00;13.23;;;;;;;-1.75;100.00;101604.41;4726355;30;20048;-77
2021/12/23 02:14:29;;;;;;;18.38;13.52;;;;;;;-1.77;100.00;101604.31;4733288;30;20264;-77
2021/12/23 02:16:57;;;;;;;18.45;13.25;;;;;;;-1.77;100.00;101575.88;4730982;30;20530;-76
2021/12/23 02:19:26;;;;;;;21.05;13.48;;;;;;;-1.76;100.00;101559.56;4716867;30;20616;-77
2021/12/23 02:21:55;;;;;;;20.10;13.13;;;;;;;-1.74;100.00;101537.28;4706041;30;20048;-77
2021/12/23 02:24:24;;;;;;;20.95;14.15;;;;;;;-1.74;100.00;101506.28;4717754;30;20285;-77
2021/12/23 02:26:52;;;;;;;19.38;13.05;;;;;;;-1.72;100.00;101489.22;4721151;30;20059;-77
2021/12/23 02:29:21;;;;;;;20.20;13.75;;;;;;;-1.68;100.00;101469.59;4742935;30;20367;-78
2021/12/23 02:31:51;;;;;;;20.13;13.48;;;;;;;-1.65;100.00;101454.31;4748042;30;20064;-78
2021/12/23 02:34:21;;;;;;;22.73;14.10;;;;;;;-1.63;100.00;101427.75;4741891;30;20185;-78
2021/12/23 02:36:55;;;;;;;18.88;12.68;;;;;;;-1.63;100.00;101421.69;4720248;30;20418;-77
2021/12/23 02:39:25;;;;;;;18.98;13.57;;;;;;;-1.64;100.00;101420.81;4741959;30;20287;-78
2021/12/23 02:41:54;;;;;;;18.77;13.43;;;;;;;-1.64;100.00;101440.59;4753540;30;20056;-77
2021/12/23 02:44:24;;;;;;;18.73;13.60;;;;;;;-1.62;100.00;101446.75;4745323;30;20245;-78
2021/12/23 02:46:53;;;;;;;16.40;10.25;;;;;;;-1.57;100.00;101478.91;4746580;30;20410;-77
2021/12/23 02:49:21;;;;;;;21.33;13.35;;;;;;;-1.57;100.00;101570.31;4743373;30;20165;-76
2021/12/23 02:51:50;;;;;;;21.30;14.35;;;;;;;-1.59;100.00;101534.78;4712238;30;20048;-77
2021/12/23 02:54:18;;;;;;;20.50;13.80;;;;;;;-1.61;100.00;101523.47;4754831;30;20063;-77
2021/12/23 02:56:47;;;;;;;20.50;14.63;;;;;;;-1.61;100.00;101537.31;4716507;30;20539;-78
2021/12/23 02:59:15;;;;;;;21.70;15.15;;;;;;;-1.60;100.00;101510.66;4739900;30;20064;-77
2021/12/23 03:01:44;;;;;;;21.13;13.57;;;;;;;-1.59;100.00;101568.41;4757526;30;20048;-77
2021/12/23 03:04:14;;;;;;;21.58;15.02;;;;;;;-1.59;100.00;101530.53;4726096;30;20724;-77
2021/12/23 03:06:42;;;;;;;20.23;15.30;;;;;;;-1.55;100.00;101529.06;4731520;30;20040;-77
2021/12/23 03:09:11;;;;;;;25.25;15.75;;;;;;;-1.53;100.00;101508.44;4711526;30;20060;-77
2021/12/23 03:11:42;;;;;;;23.38;15.02;;;;;;;-1.54;100.00;101484.28;4743654;30;20403;-77
2021/12/23 03:14:11;;;;;;;25.15;15.10;;;;;;;-1.51;100.00;101504.25;4727354;30;20055;-77
2021/12/23 03:16:39;;;;;;;22.40;14.88;;;;;;;-1.49;100.00;101479.41;4699273;30;20522;-76
2021/12/23 03:19:08;;;;;;;18.63;14.48;;;;;;;-1.48;100.00;101478.59;4696872;30;20067;-77
2021/12/23 03:21:37;;;;;;;20.33;14.65;;;;;;;-1.47;100.00;101483.88;4718568;30;20072;-77
2021/12/23 03:24:06;;;;;;;23.48;15.70;;;;;;;-1.44;100.00;101459.91;4730023;30;20044;-76
2021/12/23 03:26:35;;;;;;;24.40;15.38;;;;;;;-1.43;100.00;101452.25;4719742;30;20373;-77
2021/12/23 03:29:07;;;;;;;20.88;15.30;;;;;;;-1.40;100.00;101456.69;4723945;30;20044;-77
2021/12/23 03:31:38;;;;;;;22.80;14.98;;;;;;;-1.40;100.00;101457.63;4747294;30;20366;-77
2021/12/23 03:34:06;;;;;;;23.23;15.07;;;;;;;-1.38;100.00;101444.75;4726879;30;20175;-77
2021/12/23 03:36:36;;;;;;;17.25;12.93;;;;;;;-1.39;100.00;101428.34;4730967;30;21095;-77
2021/12/23 03:39:05;;;;;;;26.77;14.55;;;;;;;-1.37;100.00;101421.59;4723958;30;20519;-77
2021/12/23 03:41:34;;;;;;;19.50;11.33;;;;;;;-1.37;100.00;101423.28;4714559;30;20253;-76
2021/12/23 03:44:03;;;;;;;22.70;13.90;;;;;;;-1.35;100.00;101419.09;4724607;30;20048;-77
2021/12/23 03:46:32;;;;;;;20.20;13.98;;;;;;;-1.35;100.00;101419.09;4731397;30;20060;-78
2021/12/23 03:49:00;;;;;;;20.25;14.27;;;;;;;-1.35;100.00;101413.94;4758586;30;20067;-77
2021/12/23 03:51:29;;;;;;;19.88;14.77;;;;;;;-1.34;100.00;101412.22;4713876;30;20244;-77
2021/12/23 03:54:00;;;;;;;19.02;14.75;;;;;;;-1.33;100.00;101406.28;4719387;30;20054;-77
2021/12/23 03:56:29;;;;;;;20.60;14.23;;;;;;;-1.31;100.00;101404.66;4699976;30;20055;-77
2021/12/23 03:58:58;;;;;;;19.92;14.63;;;;;;;-1.31;100.00;101397.78;4739204;30;20508;-77
2021/12/23 04:01:29;;;;;;;22.30;14.90;;;;;;;-1.30;100.00;101373.72;4704021;30;20173;-77
2021/12/23 04:03:58;;;;;;;20.25;13.70;;;;;;;-1.31;100.00;101369.34;4738122;30;20521;-78
2021/12/23 04:06:27;;;;;;;24.52;15.18;;;;;;;-1.31;100.00;101369.34;4722765;30;20273;-78
2021/12/23 04:08:55;;;;;;;19.38;14.02;;;;;;;-1.29;100.00;101366.84;4732324;30;20063;-77
2021/12/23 04:11:24;;;;;;;23.10;14.35;;;;;;;-1.28;100.00;101363.50;4708580;30;20188;-77
2021/12/23 04:13:53;;;;;;;21.33;15.00;;;;;;;-1.27;100.00;101360.09;4730905;30;20037;-77
2021/12/23 04:16:22;;;;;;;19.67;14.00;;;;;;;-1.26;100.00;101373.09;4705275;30;20178;-77
2021/12/23 04:18:51;;;;;;;23.42;14.38;;;;;;;-1.26;100.00;101383.44;4751487;30;20067;-77
2021/12/23 04:21:22;;;;;;;19.88;14.68;;;;;;;-1.25;100.00;101358.47;4741159;30;20277;-77
2021/12/23 04:23:51;;;;;;;19.50;13.65;;;;;;;-1.24;100.00;101361.16;4754494;30;20051;-78
2021/12/23 04:26:19;;;;;;;22.10;13.68;;;;;;;-1.25;100.00;101372.31;4671342;30;20060;-77
2021/12/23 04:28:48;;;;;;;22.58;14.68;;;;;;;-1.24;100.00;101384.44;4759174;30;20051;-77
2021/12/23 04:31:20;;;;;;;19.95;14.88;;;;;;;-1.26;100.00;101391.22;4735230;30;20422;-77
2021/12/23 04:33:51;;;;;;;20.92;13.85;;;;;;;-1.23;100.00;101388.81;4746485;30;20052;-78
2021/12/23 04:36:20;;;;;;;20.77;14.75;;;;;;;-1.21;100.00;101382.03;4719519;30;20177;-77
2021/12/23 04:38:48;;;;;;;20.95;14.48;;;;;;;-1.21;100.00;101376.88;4732379;30;20056;-77
2021/12/23 04:41:20;;;;;;;24.63;15.30;;;;;;;-1.22;100.00;101369.91;4708486;30;20876;-78
2021/12/23 04:43:49;;;;;;;19.55;14.38;;;;;;;-1.22;100.00;101366.44;4731633;30;20392;-77
2021/12/23 04:46:17;;;;;;;21.58;14.38;;;;;;;-1.22;100.00;101348.31;4701528;30;20285;-77
2021/12/23 04:48:47;;;;;;;22.58;14.52;;;;;;;-1.24;100.00;101350.81;4732232;30;20051;-77
2021/12/23 04:51:17;;;;;;;22.58;14.52;;;;;;;-1.25;100.00;101349.06;4726293;30;20063;-77
2021/12/23 04:53:46;;;;;;;21.23;14.17;;;;;;;-1.24;100.00;101344.75;4719495;30;20055;-78
2021/12/23 04:56:16;;;;;;;22.23;14.85;;;;;;;-1.24;100.00;101326.66;4700718;30;20321;-77
2021/12/23 04:58:45;;;;;;;25.75;14.52;;;;;;;-1.24;100.00;101318.91;4711088;30;20504;-77
2021/12/23 05:01:21;;;;;;;20.73;13.65;;;;;;;-1.24;100.00;101319.78;4696715;30;20052;-77
2021/12/23 05:03:49;;;;;;;21.08;15.32;;;;;;;-1.24;100.00;101322.38;4734408;30;20054;-77
2021/12/23 05:06:18;;;;;;;23.88;13.10;;;;;;;-1.25;100.00;101320.59;4740008;30;20090;-77
2021/12/23 05:08:48;;;;;;;22.85;14.85;;;;;;;-1.23;100.00;101313.81;4743502;30;20052;-77
2021/12/23 05:11:17;;;;;;;13.57;10.38;;;;;;;-1.24;100.00;101309.44;4727618;30;20052;-78
2021/12/23 05:13:49;;;;;;;20.90;14.45;;;;;;;-1.22;100.00;101313.00;4719101;30;20054;-77
2021/12/23 05:16:18;;;;;;;20.55;14.05;;;;;;;-1.22;100.00;101317.28;4723885;30;20280;-77
2021/12/23 05:18:47;;;;;;;23.73;15.20;;;;;;;-1.21;100.00;101314.81;4754289;30;20055;-77
2021/12/23 05:21:15;;;;;;;22.83;14.52;;;;;;;-1.20;100.00;101321.75;4711502;30;20044;-77
2021/12/23 05:23:44;;;;;;;20.13;14.50;;;;;;;-1.20;100.00;101316.56;4704770;30;20048;-78
2021/12/23 05:26:12;;;;;;;21.50;13.88;;;;;;;-1.20;100.00;101311.41;4731832;30;20052;-77
2021/12/23 05:28:41;;;;;;;18.88;14.07;;;;;;;-1.17;100.00;101315.88;4688354;30;20047;-77
2021/12/23 05:31:09;;;;;;;24.70;15.63;;;;;;;-1.18;100.00;101308.91;4722299;30;20051;-77
2021/12/23 05:33:38;;;;;;;22.65;14.63;;;;;;;-1.18;100.00;101299.44;4714420;30;20067;-76
2021/12/23 05:36:06;;;;;;;20.70;15.18;;;;;;;-1.17;100.00;101300.34;4723355;30;20407;-77
2021/12/23 05:38:35;;;;;;;20.58;14.65;;;;;;;-1.15;100.00;101303.00;4742670;30;20367;-78
2021/12/23 05:41:06;;;;;;;22.90;14.63;;;;;;;-1.14;100.00;101302.22;4743023;30;20048;-76
2021/12/23 05:43:34;;;;;;;20.30;13.88;;;;;;;-1.14;100.00;101294.47;4729796;30;20658;-77
2021/12/23 05:46:03;;;;;;;23.42;15.88;;;;;;;-1.13;100.00;101316.94;4702404;30;20419;-78
2021/12/23 05:48:32;;;;;;;22.27;14.60;;;;;;;-1.13;100.00;101319.53;4726499;30;20543;-77
2021/12/23 05:51:00;;;;;;;20.75;14.27;;;;;;;-1.12;100.00;101321.28;4737586;30;20052;-77
2021/12/23 05:53:29;;;;;;;21.80;14.93;;;;;;;-1.13;100.00;101315.25;4742571;30;20546;-77
2021/12/23 05:55:57;;;;;;;23.30;14.82;;;;;;;-1.12;100.00;101321.28;4707648;30;20431;-77
2021/12/23 05:58:25;;;;;;;21.10;13.85;;;;;;;-1.13;100.00;101288.50;4732402;30;20067;-77
2021/12/23 06:00:54;;;;;;;23.95;14.75;;;;;;;-1.12;100.00;101256.63;4707576;30;20055;-77
2021/12/23 06:03:24;;;;;;;20.40;14.48;;;;;;;-1.11;100.00;101253.25;4718092;30;20063;-77
2021/12/23 06:05:53;;;;;;;21.92;15.65;;;;;;;-1.10;100.00;101226.56;4725241;30;20043;-77
2021/12/23 06:08:21;;;;;;;24.08;16.25;;;;;;;-1.10;100.00;101255.91;4758979;30;20066;-77
2021/12/23 06:10:50;;;;;;;21.80;13.50;;;;;;;-1.10;100.00;101267.97;4745821;30;20510;-77
2021/12/23 06:13:21;;;;;;;20.85;14.65;;;;;;;-1.12;100.00;101236.81;4735528;30;20052;-77
2021/12/23 06:15:50;;;;;;;23.58;15.27;;;;;;;-1.11;100.00;101229.97;4694657;30;20402;-77
2021/12/23 06:18:18;;;;;;;20.85;14.55;;;;;;;-1.11;100.00;101207.59;4757566;30;20060;-77
2021/12/23 06:20:47;;;;;;;20.60;14.35;;;;;;;-1.10;100.00;101205.88;4704282;30;20048;-77
2021/12/23 06:23:16;;;;;;;21.55;15.32;;;;;;;-1.11;100.00;101186.00;4711267;30;20048;-78
2021/12/23 06:25:45;;;;;;;17.52;13.93;;;;;;;-1.11;100.00;101191.19;4737046;30;20512;-77
2021/12/23 06:28:13;;;;;;;22.13;14.85;;;;;;;-1.11;100.00;101186.00;4728849;30;20423;-78
2021/12/23 06:30:42;;;;;;;18.85;14.52;;;;;;;-1.11;100.00;101170.50;4697941;30;20518;-76
2021/12/23 06:33:12;;;;;;;21.20;14.82;;;;;;;-1.11;100.00;101157.56;4715844;30;20040;-77
2021/12/23 06:35:40;;;;;;;21.40;15.30;;;;;;;-1.10;100.00;101143.81;4706354;30;20047;-77
2021/12/23 06:38:11;;;;;;;25.48;16.70;;;;;;;-1.10;100.00;101136.06;4715672;30;20044;-77
2021/12/23 06:40:40;;;;;;;20.75;14.68;;;;;;;-1.09;100.00;101133.56;4731105;30;20059;-77
2021/12/23 06:43:08;;;;;;;24.25;15.65;;;;;;;-1.09;100.00;101148.19;4750216;30;20052;-77
2021/12/23 06:45:37;;;;;;;21.67;14.13;;;;;;;-1.08;100.00;101149.94;4711753;30;20059;-78
2021/12/23 06:48:06;;;;;;;22.23;14.63;;;;;;;-1.09;100.00;101156.84;4685063;30;20510;-78
2021/12/23 06:50:35;;;;;;;20.00;14.68;;;;;;;-1.09;100.00;101143.91;4730819;30;20060;-77
2021/12/23 06:53:04;;;;;;;23.23;14.48;;;;;;;-1.09;100.00;101138.72;4707477;30;20049;-77
2021/12/23 06:55:33;;;;;;;25.60;15.18;;;;;;;-1.11;100.00;101127.41;4713663;30;20056;-76
2021/12/23 06:58:04;;;;;;;24.45;15.77;;;;;;;-1.11;100.00;101105.84;4714333;30;20043;-77
2021/12/23 07:00:35;;;;;;;21.13;14.63;;;;;;;-1.11;100.00;101103.25;4733076;30;20082;-77
2021/12/23 07:03:04;;;;;;;24.05;14.07;;;;;;;-1.11;100.00;101119.66;4704654;30;20051;-77
2021/12/23 07:05:33;;;;;;;23.42;14.57;;;;;;;-1.11;100.00;101080.84;4755118;30;20067;-76
2021/12/23 07:08:09;;;;;;;21.70;14.38;;;;;;;-1.12;100.00;101065.25;4717012;30;20064;-77
2021/12/23 07:10:38;;;;;;;21.40;14.45;;;;;;;-1.12;100.00;101101.47;4736919;30;20050;-77
2021/12/23 07:13:07;;;;;;;20.00;14.43;;;;;;;-1.12;100.00;101089.41;4712159;30;20161;-78
2021/12/23 07:15:36;;;;;;;24.48;15.50;;;;;;;-1.10;100.00;101090.38;4724973;30;20403;-77
2021/12/23 07:18:04;;;;;;;24.73;16.05;;;;;;;-1.08;100.00;101083.59;4728748;30;20055;-77
2021/12/23 07:20:33;;;;;;;23.98;15.93;;;;;;;-1.07;100.00;101094.84;4719928;30;20164;-77
2021/12/23 07:23:01;;;;;;;23.13;15.70;;;;;;;-1.05;100.00;101101.88;4736734;30;20056;-77
2021/12/23 07:25:30;;;;;;;24.33;16.23;;;;;;;-1.02;100.00;101103.72;4718111;30;20067;-77
2021/12/23 07:27:59;;;;;;;21.83;15.68;;;;;;;-0.99;100.00;101112.53;4750733;30;20048;-77
2021/12/23 07:30:28;;;;;;;23.98;16.08;;;;;;;-0.96;100.00;101108.34;4686319;30;20498;-77
2021/12/23 07:32:59;;;;;;;27.75;17.02;;;;;;;-0.94;100.00;101117.97;4713256;30;20040;-76
2021/12/23 07:35:27;;;;;;;23.75;16.35;;;;;;;-0.90;100.00;101098.34;4705640;30;20063;-77
2021/12/23 07:38:00;;;;;;;23.90;16.00;;;;;;;-0.89;100.00;101095.84;4752910;30;20503;-77
2021/12/23 07:40:30;;;;;;;26.50;16.70;;;;;;;-0.85;100.00;101078.75;4758235;30;20273;-77
2021/12/23 07:43:09;;;;;;;24.95;16.42;;;;;;;-0.85;100.00;101066.72;4761713;30;20059;-77
2021/12/23 07:45:38;;;;;;;25.77;16.38;;;;;;;-0.82;100.00;101069.47;4753345;30;20059;-77
2021/12/23 07:48:07;;;;;;;26.67;16.60;;;;;;;-0.82;100.00;101061.69;4710271;30;20365;-77
2021/12/23 07:50:37;;;;;;;25.13;17.42;;;;;;;-0.80;100.00;101074.72;4732348;30;20056;-76
2021/12/23 07:53:07;;;;;;;26.08;17.70;;;;;;;-0.80;100.00;101065.25;4714219;30;20052;-77
2021/12/23 07:55:38;;;;;;;27.27;18.02;;;;;;;-0.77;100.00;101061.94;4733547;30;20285;-77
2021/12/23 07:58:06;;;;;;;24.33;17.85;;;;;;;-0.75;100.00;101085.31;4720624;30;20055;-77
2021/12/23 08:00:35;;;;;;;27.52;18.73;;;;;;;-0.74;100.00;101094.84;4745500;30;20048;-77
2021/12/23 08:03:07;;;;;;;25.50;17.25;;;;;;;-0.76;100.00;101087.00;4724376;30;20051;-77
2021/12/23 08:05:35;;;;;;;25.92;18.20;;;;;;;-0.75;100.00;101095.69;4718331;30;20071;-77
2021/12/23 08:08:04;;;;;;;28.92;18.33;;;;;;;-0.76;100.00;101099.94;4720328;30;20051;-77
2021/12/23 08:10:33;;;;;;;29.10;19.85;;;;;;;-0.74;100.00;101100.03;4738577;30;20627;-78
2021/12/23 08:13:01;;;;;;;28.67;18.95;;;;;;;-0.72;100.00;101108.75;4726434;30;20051;-78
2021/12/23 08:15:30;;;;;;;31.65;21.40;;;;;;;-0.71;100.00;101095.91;4727910;30;20778;-77
2021/12/23 08:17:58;;;;;;;29.80;19.98;;;;;;;-0.70;100.00;101100.28;4727112;30;20051;-77
2021/12/23 08:20:28;;;;;;;31.10;21.17;;;;;;;-0.67;100.00;101107.31;4697030;30;20263;-77
2021/12/23 08:22:57;;;;;;;30.17;19.90;;;;;;;-0.66;100.00;101109.06;4755224;30;20055;-77
2021/12/23 08:25:25;;;;;;;29.60;20.17;;;;;;;-0.65;100.00;101105.69;4718461;30;20359;-77
2021/12/23 08:27:55;;;;;;;29.52;19.05;;;;;;;-0.63;100.00;101098.91;4724538;30;20044;-78
2021/12/23 08:30:23;;;;;;;34.13;21.77;;;;;;;-0.63;100.00;101093.72;4746447;30;20089;-78
2021/12/23 08:32:52;;;;;;;29.73;19.48;;;;;;;-0.61;100.00;101082.63;4729494;30;20047;-77
2021/12/23 08:35:22;;;;;;;28.35;20.02;;;;;;;-0.63;100.00;101073.00;4706220;30;20048;-77
2021/12/23 08:37:50;;;;;;;32.58;19.60;;;;;;;-0.63;100.00;101068.72;4738973;30;20054;-78
2021/12/23 08:40:23;;;;;;;32.65;21.70;;;;;;;-0.64;100.00;101064.38;4724171;30;20424;-77
2021/12/23 08:42:52;;;;;;;34.03;22.02;;;;;;;-0.63;100.00;101075.59;4762381;30;20390;-78
2021/12/23 08:45:21;;;;;;;33.70;21.15;;;;;;;-0.63;100.00;101073.88;4715083;30;20539;-78
2021/12/23 08:47:51;;;;;;;31.10;20.55;;;;;;;-0.63;100.00;101062.66;4735692;30;20052;-78
2021/12/23 08:50:20;;;;;;;32.40;21.33;;;;;;;-0.65;100.00;101057.41;4725386;30;20153;-77
2021/12/23 08:52:49;;;;;;;32.78;21.40;;;;;;;-0.63;100.00;101065.25;4698543;30;20048;-78
2021/12/23 08:55:18;;;;;;;30.40;20.02;;;;;;;-0.64;100.00;101066.06;4733569;30;20048;-77
2021/12/23 08:57:48;;;;;;;30.27;20.65;;;;;;;-0.66;100.00;101049.53;4766457;30;20058;-77
2021/12/23 09:00:19;;;;;;;31.00;20.42;;;;;;;-0.65;100.00;101043.56;4738610;30;20617;-77
2021/12/23 09:02:48;;;;;;;30.10;20.33;;;;;;;-0.65;100.00;101053.94;4732709;30;20410;-77
2021/12/23 09:05:19;;;;;;;34.33;22.25;;;;;;;-0.66;100.00;101052.13;4733578;30;20169;-77
2021/12/23 09:07:49;;;;;;;29.20;20.17;;;;;;;-0.67;100.00;101027.09;4721892;30;20058;-76
2021/12/23 09:10:18;;;;;;;27.10;16.63;;;;;;;-0.65;100.00;101048.75;4740572;30;20564;-77
2021/12/23 09:12:48;;;;;;;30.27;20.08;;;;;;;-0.67;100.00;101047.78;4747111;30;20063;-78
2021/12/23 09:15:18;;;;;;;29.33;19.98;;;;;;;-0.68;100.00;101036.56;4715092;30;20296;-79
2021/12/23 09:17:50;;;;;;;31.63;20.17;;;;;;;-0.67;100.00;101040.03;4746644;30;20063;-77
2021/12/23 09:20:21;;;;;;;26.77;19.33;;;;;;;-0.71;100.00;101031.22;4712039;30;20765;-77
2021/12/23 09:22:53;;;;;;;34.50;20.95;;;;;;;-0.67;100.00;101030.56;4717143;30;20604;-76
2021/12/23 09:25:29;;;;;;;28.90;20.17;;;;;;;-0.67;100.00;101017.59;4721225;30;20561;-77
2021/12/23 09:28:30;;;;;;;29.38;20.42;;;;;;;-0.65;100.00;101020.28;4718407;30;20491;-76
2021/12/23 09:33:46;;;;;;;30.02;20.98;;;;;;;-0.66;100.00;101013.31;4713947;30;20063;-77
2021/12/23 09:36:15;;;;;;;35.55;21.38;;;;;;;-0.66;100.00;101011.63;4724729;30;20043;-77
2021/12/23 09:38:45;;;;;;;32.65;21.20;;;;;;;-0.66;100.00;101009.06;4695740;30;20066;-76
2021/12/23 09:41:18;;;;;;;32.70;22.42;;;;;;;-0.64;100.00;101003.97;4719885;30;20067;-76
2021/12/23 09:43:47;;;;;;;32.25;20.83;;;;;;;-0.65;100.00;100995.28;4726937;30;20063;-78
2021/12/23 09:46:20;;;;;;;30.90;20.88;;;;;;;-0.62;100.00;101002.34;4720295;30;20715;-77
2021/12/23 09:48:50;;;;;;;30.83;20.92;;;;;;;-0.61;100.00;100983.38;4717238;30;20047;-77
2021/12/23 09:51:21;;;;;;;32.67;21.98;;;;;;;-0.60;100.00;100985.19;4714356;30;20059;-77
2021/12/23 09:53:57;;;;;;;33.08;21.55;;;;;;;-0.60;100.00;100987.75;4735129;30;20489;-77
2021/12/23 09:56:27;;;;;;;32.13;21.13;;;;;;;-0.60;100.00;100987.75;4734766;30;20054;-77
2021/12/23 09:58:58;;;;;;;33.45;21.80;;;;;;;-0.58;100.00;100982.69;4717141;30;20609;-77
2021/12/23 10:01:31;;;;;;;29.35;20.45;;;;;;;-0.59;100.00;100984.34;4743651;30;20418;-77
2021/12/23 10:04:02;;;;;;;34.60;21.67;;;;;;;-0.57;100.00;100977.53;4735405;30;20078;-77
2021/12/23 10:06:36;;;;;;;32.67;21.38;;;;;;;-0.55;100.00;100951.75;4733013;30;20060;-77
2021/12/23 10:09:40;;;;;;;32.58;21.27;;;;;;;-0.55;100.00;100942.25;4713463;30;20055;-77
2021/12/23 10:31:47;;;;;;;38.30;25.10;;;;;;;-0.63;100.00;100908.25;4735372;30;20056;-77
2021/12/23 10:37:23;;;;;;;37.03;24.17;;;;;;;-0.65;100.00;100903.81;4741582;30;20060;-78
2021/12/23 10:40:03;;;;;;;31.77;20.30;;;;;;;-0.64;100.00;100906.47;4694398;30;20071;-77
2021/12/23 10:42:33;;;;;;;44.10;26.17;;;;;;;-0.62;100.00;100898.81;4690981;30;20071;-78
2021/12/23 10:45:12;;;;;;;39.60;23.83;;;;;;;-0.60;100.00;100904.94;4713832;30;20059;-77
2021/12/23 10:47:57;;;;;;;44.75;26.52;;;;;;;-0.60;100.00;100899.75;4740358;30;20453;-77
2021/12/23 10:50:33;;;;;;;41.97;25.67;;;;;;;-0.60;100.00;100886.81;4727047;30;20057;-77
2021/12/23 10:53:14;;;;;;;46.95;27.83;;;;;;;-0.59;100.00;100883.41;4742566;30;20086;-77
2021/12/23 10:58:33;;;;;;;48.58;28.90;;;;;;;-0.56;100.00;100870.63;4669247;30;20055;-78
2021/12/23 11:01:03;;;;;;;50.67;29.35;;;;;;;-0.56;100.00;100861.97;4742244;30;20069;-77
2021/12/23 11:03:41;;;;;;;47.58;29.52;;;;;;;-0.56;100.00;100854.22;4725782;30;20185;-76
2021/12/23 11:06:29;;;;;;;51.33;28.98;;;;;;;-0.54;100.00;100853.47;4716044;30;20071;-77
2021/12/23 11:27:29;;;;;;;58.67;32.22;;;;;;;-0.51;100.00;100819.06;4729541;30;20048;-77
2021/12/23 11:37:43;;;;;;;62.30;32.35;;;;;;;-0.48;100.00;100791.63;4741421;30;20076;-79
2021/12/23 11:43:57;;;;;;;64.38;34.78;;;;;;;-0.50;100.00;100789.78;4687225;30;20622;-77
2021/12/23 11:45:53;;;;;;;58.20;33.70;;;;;;;-0.51;100.00;100783.72;4710455;30;20581;-77
2021/12/23 11:48:22;;;;;;;72.80;36.85;;;;;;;-0.52;100.00;100774.16;4731622;30;20056;-77
2021/12/23 11:50:56;;;;;;;67.63;34.80;;;;;;;-0.51;100.00;100783.72;4752646;30;20084;-77
2021/12/23 11:53:25;;;;;;;77.05;34.55;;;;;;;-0.51;100.00;100773.38;4698394;30;20047;-77
2021/12/23 11:55:55;;;;;;;78.90;37.08;;;;;;;-0.50;100.00;100767.34;4694432;30;20067;-78
2021/12/23 11:58:25;;;;;;;72.80;35.65;;;;;;;-0.50;100.00;100780.31;4692625;30;20048;-77
2021/12/23 12:01:05;;;;;;;75.68;36.67;;;;;;;-0.49;100.00;100776.00;4689367;30;20051;-78
2021/12/23 12:03:59;;;;;;;63.88;34.05;;;;;;;-0.49;100.00;100769.16;4726975;30;20077;-78
2021/12/23 12:06:38;;;;;;;72.65;37.30;;;;;;;-0.46;100.00;100777.03;4728681;30;20060;-79
2021/12/23 12:09:17;;;;;;;67.97;34.65;;;;;;;-0.47;100.00;100770.09;4728391;30;20072;-79
2021/12/23 12:11:58;;;;;;;63.58;33.13;;;;;;;-0.47;100.00;100767.50;4712996;30;20060;-79
2021/12/23 12:14:43;;;;;;;72.97;35.63;;;;;;;-0.48;100.00;100764.84;4722650;30;20075;-78
2021/12/23 12:17:25;;;;;;;69.00;34.28;;;;;;;-0.49;100.00;100773.41;4699760;30;20075;-81
2021/12/23 12:20:12;;;;;;;71.18;37.05;;;;;;;-0.49;100.00;100765.66;4708793;30;20063;-78
2021/12/23 12:22:54;;;;;;;73.75;35.58;;;;;;;-0.49;100.00;100760.47;4730507;30;20519;-79